Terminal Aerodrome Forecast
Issued by NWS Twin Cities, MN

Home | Current Version | Previous Version | Graphics & Text | Print | Product List | Glossary On
Versions: 1 2 3 4 5 6 7 8 9 10 11 12 13 14 15 16
000
FTUS43 KMPX 190531
TAFSTC
TAF
KSTC 190531Z 1906/2006 27008KT P6SM BKN080
     FM191000 31011KT P6SM OVC015
     FM191200 34013G20KT P6SM OVC012
     FM191900 01013G20KT P6SM SCT030=

USA.gov is the U.S. government's official web portal to all federal, state and local government web resources and services.